Terminal Aerodrome Forecast
Issued by NWS Greer, SC

Current Version | Previous Version | Text Only | Print | Product List | Glossary On
Versions: 1 2 3 4 5 6 7 8 9 10 11 12 13 14 15 16 17 18 19 20 21 22 23 24 25 26 27 28 29 30 31 32 33 34 35 36 37 38 39 40
000
FTUS42 KGSP 240500
TAFAVL
TAF
KAVL 240520Z 2406/2506 VRB03KT P6SM SCT070
      TEMPO 2408/2412 3SM BR FEW020 BKN060
     FM241200 36003KT P6SM SCT070
     FM242000 01006KT P6SM SCT080
     FM250000 36003KT P6SM BKN070=

USA.gov is the U.S. government's official web portal to all federal, state and local government web resources and services.